Mapleton Depot, Pennsylvania
Current Conditions -  °F | °C
As of 2:53 PM on Sunday 23 Nov 2014 (Local Time) from KAOO Reporting Station
Clear Clear  
Wind Chill: 59°   Ceiling: Unl
Heat Index: 59°   Visibility: 10mi
Dew Point: 42°   Wind: 12mph
Humidity: 53%   Direction: 180°S
Pressure: 29.99"   Gusts: NA
Location:  40.4°N, 77.95°W
Report Text: KAOO 231953Z AUTO 18010KT 10SM CLR 15/06 A2999 RMK AO2 SLP159 T01500056
Loading
Personal Weather Stations






























Interactive Weather Map New forecast layout! Learn more

10-Day Weather Forecast

Advertisements
Track Severe Weather on mobile